Time;durP1;ratioP1;P1;durP2;ratioP2;P2;SDS_P1;SDS_P2;PMS_P1;PMS_P2;Temp;Humidity;BMP_temperature;BMP_pressure;BME280_temperature;BME280_humidity;BME280_pressure;Samples;Min_cycle;Max_cycle;Signal;HPM_P1;HPM_P2
2023/07/09 00:02:14;;;;;;;;;;;;;;;19.60;100.00;101793.13;5033766;28;19983;-74
2023/07/09 00:04:40;;;;;;;;;;;;;;;19.59;100.00;101791.44;5033614;28;20365;-75
2023/07/09 00:07:11;;;;;;;;;;;;;;;19.58;100.00;101791.63;5034009;28;19952;-76
2023/07/09 00:09:36;;;;;;;;;;;;;;;19.61;100.00;101791.25;5034004;28;19913;-76
2023/07/09 00:12:02;;;;;;;;;;;;;;;19.63;100.00;101800.00;5033822;28;19913;-76
2023/07/09 00:14:27;;;;;;;;;;;;;;;19.64;100.00;101804.41;5033790;28;20003;-76
2023/07/09 00:16:52;;;;;;;;;;;;;;;19.63;100.00;101808.09;5033328;28;19916;-75
2023/07/09 00:19:19;;;;;;;;;;;;;;;19.61;100.00;101810.16;5033753;28;20380;-75
2023/07/09 00:21:46;;;;;;;;;;;;;;;19.57;100.00;101815.03;5015604;28;19963;-76
2023/07/09 00:24:14;;;;;;;;;;;;;;;19.51;100.00;101818.44;5033692;28;19913;-76
2023/07/09 00:26:43;;;;;;;;;;;;;;;19.47;100.00;101812.56;5033291;28;19920;-76
2023/07/09 00:29:11;;;;;;;;;;;;;;;19.43;100.00;101815.78;5033511;28;19940;-76
2023/07/09 00:31:43;;;;;;;;;;;;;;;19.38;100.00;101816.31;5033289;28;19917;-77
2023/07/09 00:34:12;;;;;;;;;;;;;;;19.33;100.00;101813.28;5033837;28;19913;-74
2023/07/09 00:36:38;;;;;;;;;;;;;;;19.29;100.00;101806.56;5033122;28;19913;-75
2023/07/09 00:39:07;;;;;;;;;;;;;;;19.24;100.00;101809.75;5032663;28;19936;-76
2023/07/09 00:41:36;;;;;;;;;;;;;;;19.20;100.00;101819.25;5033427;28;19917;-76
2023/07/09 00:44:17;;;;;;;;;;;;;;;19.16;100.00;101810.63;5032942;28;19912;-76
2023/07/09 00:46:48;;;;;;;;;;;;;;;19.13;100.00;101807.44;5032582;28;19999;-76
2023/07/09 00:49:16;;;;;;;;;;;;;;;19.11;100.00;101809.47;5033388;28;19964;-76
2023/07/09 00:51:45;;;;;;;;;;;;;;;19.08;100.00;101812.50;5032574;28;20022;-76
2023/07/09 00:54:21;;;;;;;;;;;;;;;19.06;100.00;101801.88;5033133;28;19912;-76
2023/07/09 00:56:51;;;;;;;;;;;;;;;19.03;100.00;101799.53;5032361;28;19917;-76
2023/07/09 00:59:19;;;;;;;;;;;;;;;19.01;100.00;101794.31;5032764;28;19920;-76
2023/07/09 01:01:47;;;;;;;;;;;;;;;18.99;100.00;101790.97;5032615;28;19920;-76
2023/07/09 01:04:13;;;;;;;;;;;;;;;18.98;100.00;101799.22;5033116;28;20023;-76
2023/07/09 01:06:46;;;;;;;;;;;;;;;18.94;100.00;101806.78;5032761;28;19956;-76
2023/07/09 01:09:11;;;;;;;;;;;;;;;18.94;100.00;101805.97;5033106;28;19935;-76
2023/07/09 01:11:38;;;;;;;;;;;;;;;18.92;100.00;101808.00;5032978;28;20291;-76
2023/07/09 01:14:07;;;;;;;;;;;;;;;18.92;100.00;101811.53;5032475;28;19921;-76
2023/07/09 01:16:35;;;;;;;;;;;;;;;18.92;100.00;101811.53;5032590;28;19997;-76
2023/07/09 01:19:00;;;;;;;;;;;;;;;18.91;100.00;101817.09;5032433;28;20026;-76
2023/07/09 01:21:26;;;;;;;;;;;;;;;18.89;100.00;101817.25;5032803;28;20380;-75
2023/07/09 01:23:54;;;;;;;;;;;;;;;18.91;100.00;101819.78;5032215;28;19921;-76
2023/07/09 01:26:21;;;;;;;;;;;;;;;18.90;100.00;101821.66;5033041;28;19936;-76
2023/07/09 01:28:46;;;;;;;;;;;;;;;18.91;100.00;101825.19;5032357;28;19913;-76
2023/07/09 01:31:12;;;;;;;;;;;;;;;18.91;100.00;101831.41;5032910;28;19913;-76
2023/07/09 01:33:39;;;;;;;;;;;;;;;18.90;100.00;101834.28;5032730;28;20043;-76
2023/07/09 01:36:07;;;;;;;;;;;;;;;18.89;100.00;101838.00;5032114;28;19928;-76
2023/07/09 01:38:33;;;;;;;;;;;;;;;18.88;100.00;101842.53;5032546;28;19913;-76
2023/07/09 01:40:59;;;;;;;;;;;;;;;18.89;100.00;101840.69;5031923;28;19913;-76
2023/07/09 01:43:25;;;;;;;;;;;;;;;18.87;100.00;101831.91;5032524;28;19948;-76
2023/07/09 01:45:51;;;;;;;;;;;;;;;18.88;100.00;101845.22;5031936;28;19919;-76
2023/07/09 01:48:16;;;;;;;;;;;;;;;18.85;100.00;101842.84;5032797;28;19916;-76
2023/07/09 01:50:43;;;;;;;;;;;;;;;18.84;100.00;101846.56;5033599;28;19959;-75
2023/07/09 01:53:09;;;;;;;;;;;;;;;18.83;100.00;101839.47;5017859;28;19971;-75
2023/07/09 01:55:35;;;;;;;;;;;;;;;18.84;100.00;101841.19;5035958;28;19913;-75
2023/07/09 01:58:00;;;;;;;;;;;;;;;18.83;100.00;101837.63;5035833;28;19939;-75
2023/07/09 02:00:27;;;;;;;;;;;;;;;18.83;100.00;101840.31;5036093;28;19944;-75
2023/07/09 02:02:52;;;;;;;;;;;;;;;18.84;100.00;101839.31;5035709;28;20350;-76
2023/07/09 02:05:18;;;;;;;;;;;;;;;18.85;100.00;101849.13;5036145;28;19921;-75
2023/07/09 02:07:44;;;;;;;;;;;;;;;18.85;100.00;101838.34;5036019;28;19920;-75
2023/07/09 02:10:10;;;;;;;;;;;;;;;18.86;100.00;101841.88;5035237;28;19916;-76
2023/07/09 02:12:35;;;;;;;;;;;;;;;18.85;100.00;101842.84;5036069;28;19917;-75
2023/07/09 02:15:01;;;;;;;;;;;;;;;18.84;100.00;101841.19;5035520;28;19943;-75
2023/07/09 02:17:26;;;;;;;;;;;;;;;18.83;100.00;101840.31;5036114;28;20335;-75
2023/07/09 02:19:52;;;;;;;;;;;;;;;18.82;100.00;101835.09;5035323;28;19946;-76
2023/07/09 02:22:19;;;;;;;;;;;;;;;18.81;100.00;101834.25;5035798;28;19913;-75
2023/07/09 02:24:44;;;;;;;;;;;;;;;18.79;100.00;101833.56;5035809;28;19921;-75
2023/07/09 02:27:10;;;;;;;;;;;;;;;18.76;100.00;101835.78;5035289;28;19989;-75
2023/07/09 02:29:36;;;;;;;;;;;;;;;18.74;100.00;101829.72;5036144;28;19913;-75
2023/07/09 02:32:01;;;;;;;;;;;;;;;18.72;100.00;101831.72;5035234;28;19917;-75
2023/07/09 02:34:27;;;;;;;;;;;;;;;18.68;100.00;101829.38;5035621;28;20384;-75
2023/07/09 02:36:56;;;;;;;;;;;;;;;18.66;100.00;101827.84;5035501;28;20346;-75
2023/07/09 02:39:22;;;;;;;;;;;;;;;18.63;100.00;101829.03;5035164;28;19913;-74
2023/07/09 02:41:48;;;;;;;;;;;;;;;18.59;100.00;101833.06;5035187;28;19948;-75
2023/07/09 02:44:13;;;;;;;;;;;;;;;18.56;100.00;101836.09;5034679;28;20368;-76
2023/07/09 02:46:39;;;;;;;;;;;;;;;18.54;100.00;101838.13;5017668;28;19956;-76
2023/07/09 02:49:05;;;;;;;;;;;;;;;18.51;100.00;101835.75;5033684;28;20368;-76
2023/07/09 02:51:30;;;;;;;;;;;;;;;18.48;100.00;101841.47;5035282;28;19947;-75
2023/07/09 02:53:57;;;;;;;;;;;;;;;18.45;100.00;101831.91;5034676;28;19917;-76
2023/07/09 02:56:22;;;;;;;;;;;;;;;18.42;100.00;101832.22;5017268;28;19925;-76
2023/07/09 02:58:47;;;;;;;;;;;;;;;18.42;100.00;101831.38;5035270;28;19952;-76
2023/07/09 03:01:13;;;;;;;;;;;;;;;18.38;100.00;101825.47;5034058;28;19913;-75
2023/07/09 03:03:38;;;;;;;;;;;;;;;18.35;100.00;101838.44;5017088;28;19953;-75
2023/07/09 03:06:04;;;;;;;;;;;;;;;18.31;100.00;101838.75;5034642;28;20023;-75
2023/07/09 03:08:29;;;;;;;;;;;;;;;18.30;100.00;101847.88;5034995;28;19917;-76
2023/07/09 03:10:54;;;;;;;;;;;;;;;18.28;100.00;101847.19;5035048;28;20368;-75
2023/07/09 03:13:20;;;;;;;;;;;;;;;18.28;100.00;101840.97;5034825;28;19920;-75
2023/07/09 03:15:53;;;;;;;;;;;;;;;18.27;100.00;101844.66;5017462;28;19913;-75
2023/07/09 03:18:18;;;;;;;;;;;;;;;18.24;100.00;101851.22;5034515;28;20110;-76
2023/07/09 03:20:44;;;;;;;;;;;;;;;18.23;100.00;101846.00;5016704;28;19917;-75
2023/07/09 03:23:09;;;;;;;;;;;;;;;18.22;100.00;101847.00;5016297;28;19923;-75
2023/07/09 03:25:34;;;;;;;;;;;;;;;18.23;100.00;101846.84;5033440;28;20006;-75
2023/07/09 03:28:00;;;;;;;;;;;;;;;18.23;100.00;101854.94;5034640;28;20254;-76
2023/07/09 03:30:25;;;;;;;;;;;;;;;18.24;100.00;101853.94;5034289;28;19912;-75
2023/07/09 03:32:50;;;;;;;;;;;;;;;18.24;100.00;101858.44;5034579;28;19923;-75
2023/07/09 03:35:15;;;;;;;;;;;;;;;18.23;100.00;101859.47;5034051;28;20369;-76
2023/07/09 03:37:41;;;;;;;;;;;;;;;18.22;100.00;101855.09;5016912;28;19912;-75
2023/07/09 03:40:11;;;;;;;;;;;;;;;18.20;100.00;101855.25;5033664;28;20335;-76
2023/07/09 03:42:36;;;;;;;;;;;;;;;18.21;100.00;101851.53;5034347;28;19913;-75
2023/07/09 03:45:01;;;;;;;;;;;;;;;18.24;100.00;101856.63;5034320;28;19939;-75
2023/07/09 03:47:26;;;;;;;;;;;;;;;18.27;100.00;101856.28;5034081;28;19952;-75
2023/07/09 03:49:51;;;;;;;;;;;;;;;18.35;100.00;101852.75;5034029;28;20016;-74
2023/07/09 03:52:17;;;;;;;;;;;;;;;18.42;100.00;101840.31;5033802;28;19917;-75
2023/07/09 03:54:42;;;;;;;;;;;;;;;18.45;100.00;101833.72;5034171;28;20376;-75
2023/07/09 03:57:08;;;;;;;;;;;;;;;18.50;100.00;101843.00;5033378;28;20385;-75
2023/07/09 03:59:33;;;;;;;;;;;;;;;18.59;100.00;101851.09;5033985;28;20024;-75
2023/07/09 04:01:59;;;;;;;;;;;;;;;18.66;100.00;101849.41;5033990;28;19953;-75
2023/07/09 04:04:24;;;;;;;;;;;;;;;18.70;100.00;101852.63;5032296;28;19921;-75
2023/07/09 04:06:49;;;;;;;;;;;;;;;18.76;100.00;101846.56;5033896;28;19991;-75
2023/07/09 04:09:14;;;;;;;;;;;;;;;18.79;100.00;101846.22;5015719;28;19917;-75
2023/07/09 04:11:40;;;;;;;;;;;;;;;18.80;100.00;101845.22;5033734;28;19920;-75
2023/07/09 04:14:07;;;;;;;;;;;;;;;18.83;100.00;101851.09;5033090;28;19917;-74
2023/07/09 04:16:32;;;;;;;;;;;;;;;18.84;100.00;101851.97;5033688;28;19913;-75
2023/07/09 04:18:57;;;;;;;;;;;;;;;18.82;100.00;101862.91;5033805;28;19913;-75
2023/07/09 04:21:22;;;;;;;;;;;;;;;18.83;100.00;101875.34;5033171;28;19924;-75
2023/07/09 04:23:48;;;;;;;;;;;;;;;18.82;100.00;101875.53;5033460;28;19913;-75
2023/07/09 04:26:14;;;;;;;;;;;;;;;18.81;100.00;101874.69;5033203;28;19925;-75
2023/07/09 04:28:39;;;;;;;;;;;;;;;18.80;100.00;101864.91;5033330;28;19936;-75
2023/07/09 04:31:04;;;;;;;;;;;;;;;18.83;100.00;101871.84;5033498;28;20365;-74
2023/07/09 04:33:30;;;;;;;;;;;;;;;18.84;100.00;101865.44;5033070;28;19920;-74
2023/07/09 04:35:55;;;;;;;;;;;;;;;18.85;100.00;101867.09;5033392;28;19920;-75
2023/07/09 04:38:20;;;;;;;;;;;;;;;18.87;100.00;101866.97;5033355;28;20353;-75
2023/07/09 04:40:46;;;;;;;;;;;;;;;18.88;100.00;101868.66;5033074;28;19913;-75
2023/07/09 04:43:11;;;;;;;;;;;;;;;18.89;100.00;101862.25;5033031;28;19956;-75
2023/07/09 04:45:37;;;;;;;;;;;;;;;18.93;100.00;101863.59;5032120;28;19913;-75
2023/07/09 04:48:02;;;;;;;;;;;;;;;18.96;100.00;101869.50;5033251;28;19917;-75
2023/07/09 04:50:27;;;;;;;;;;;;;;;18.99;100.00;101866.47;4998743;28;19917;-75
2023/07/09 04:52:53;;;;;;;;;;;;;;;19.02;100.00;101874.22;5032915;28;20001;-75
2023/07/09 04:55:18;;;;;;;;;;;;;;;19.05;100.00;101873.03;5032495;28;19916;-75
2023/07/09 04:57:44;;;;;;;;;;;;;;;19.09;100.00;101884.31;5015203;28;19927;-75
2023/07/09 05:00:10;;;;;;;;;;;;;;;19.15;100.00;101884.50;5033130;28;20015;-75
2023/07/09 05:02:35;;;;;;;;;;;;;;;19.22;100.00;101887.34;5032722;28;20277;-75
2023/07/09 05:05:00;;;;;;;;;;;;;;;19.30;100.00;101894.56;5033130;28;20332;-75
2023/07/09 05:07:26;;;;;;;;;;;;;;;19.36;100.00;101892.03;5032658;28;20277;-75
2023/07/09 05:09:51;;;;;;;;;;;;;;;19.47;100.00;101890.00;5032986;28;19920;-75
2023/07/09 05:12:16;;;;;;;;;;;;;;;19.59;100.00;101899.41;5032648;28;19917;-75
2023/07/09 05:14:41;;;;;;;;;;;;;;;19.74;100.00;101894.97;5015556;28;19913;-75
2023/07/09 05:17:07;;;;;;;;;;;;;;;19.86;100.00;101894.63;5033131;28;20011;-75
2023/07/09 05:19:33;;;;;;;;;;;;;;;19.98;100.00;101895.91;5032512;28;20407;-75
2023/07/09 05:21:58;;;;;;;;;;;;;;;20.10;100.00;101887.44;5032670;28;20403;-75
2023/07/09 05:24:23;;;;;;;;;;;;;;;20.17;100.00;101891.94;5033181;28;20027;-75
2023/07/09 05:26:48;;;;;;;;;;;;;;;20.22;100.00;101875.19;5036988;28;20349;-75
2023/07/09 05:29:14;;;;;;;;;;;;;;;20.32;100.00;101886.63;5036942;28;19917;-75
2023/07/09 05:31:41;;;;;;;;;;;;;;;20.41;100.00;101885.53;5036375;28;20007;-75
2023/07/09 05:34:07;;;;;;;;;;;;;;;20.50;100.00;101880.09;5036865;28;19917;-75
2023/07/09 05:36:32;;;;;;;;;;;;;;;20.58;100.00;101874.63;5036042;28;20395;-75
2023/07/09 05:38:57;;;;;;;;;;;;;;;20.65;100.00;101870.19;5036767;28;19966;-75
2023/07/09 05:41:23;;;;;;;;;;;;;;;20.72;100.00;101865.75;5036188;28;19921;-76
2023/07/09 05:43:49;;;;;;;;;;;;;;;20.81;100.00;101876.50;5036575;28;20346;-75
2023/07/09 05:46:14;;;;;;;;;;;;;;;20.92;100.00;101878.78;5036621;28;19972;-75
2023/07/09 05:48:40;;;;;;;;;;;;;;;20.99;100.00;101876.16;5036183;28;19952;-75
2023/07/09 05:51:05;;;;;;;;;;;;;;;21.07;100.00;101874.25;5036689;28;20349;-75
2023/07/09 05:53:32;;;;;;;;;;;;;;;21.15;100.00;101884.13;5036038;28;19913;-76
2023/07/09 05:55:57;;;;;;;;;;;;;;;21.23;100.00;101883.22;5036675;28;20003;-75
2023/07/09 05:58:23;;;;;;;;;;;;;;;21.31;100.00;101883.97;5036042;28;19959;-76
2023/07/09 06:00:56;;;;;;;;;;;;;;;21.41;100.00;101878.28;5036385;28;20349;-75
2023/07/09 06:03:21;;;;;;;;;;;;;;;21.49;100.00;101880.91;5036291;28;19913;-76
2023/07/09 06:05:49;;;;;;;;;;;;;;;21.55;100.00;101890.19;5036234;28;20332;-75
2023/07/09 06:08:14;;;;;;;;;;;;;;;21.60;100.00;101892.31;5018737;28;20373;-76
2023/07/09 06:10:43;;;;;;;;;;;;;;;21.63;100.00;101897.38;5035783;28;19943;-75
2023/07/09 06:13:08;;;;;;;;;;;;;;;21.70;100.00;101894.75;5035979;28;19917;-75
2023/07/09 06:15:34;;;;;;;;;;;;;;;21.76;100.00;101904.84;5035352;28;19928;-77
2023/07/09 06:18:00;;;;;;;;;;;;;;;21.86;100.00;101899.97;5018434;28;19917;-75
2023/07/09 06:20:25;;;;;;;;;;;;;;;21.95;100.00;101908.84;5035420;28;20274;-76
2023/07/09 06:22:50;;;;;;;;;;;;;;;22.00;100.00;101909.13;5035883;28;19917;-76
2023/07/09 06:25:15;;;;;;;;;;;;;;;22.03;100.00;101903.31;5035967;28;19924;-75
2023/07/09 06:27:40;;;;;;;;;;;;;;;22.07;100.00;101910.03;5035487;28;20208;-76
2023/07/09 06:30:06;;;;;;;;;;;;;;;22.08;100.00;101905.44;5035847;28;20254;-76
2023/07/09 06:32:31;;;;;;;;;;;;;;;22.06;100.00;101907.53;5035132;28;20387;-77
2023/07/09 06:34:57;;;;;;;;;;;;;;;22.08;100.00;101910.88;5035679;28;19920;-76
2023/07/09 06:37:22;;;;;;;;;;;;;;;22.12;100.00;101917.59;5034712;28;20373;-76
2023/07/09 06:39:47;;;;;;;;;;;;;;;22.17;100.00;101916.00;5035147;28;19917;-76
2023/07/09 06:42:12;;;;;;;;;;;;;;;22.24;100.00;101924.19;5035956;28;20015;-76
2023/07/09 06:44:38;;;;;;;;;;;;;;;22.27;100.00;101936.53;5035096;28;19916;-76
2023/07/09 06:47:03;;;;;;;;;;;;;;;22.28;100.00;101930.09;5017561;28;19917;-75
2023/07/09 06:49:28;;;;;;;;;;;;;;;22.33;100.00;101938.53;5034927;28;19917;-76
2023/07/09 06:51:54;;;;;;;;;;;;;;;22.36;100.00;101943.56;5035122;28;19928;-76
2023/07/09 06:54:19;;;;;;;;;;;;;;;22.39;100.00;101948.59;5035008;28;19917;-74
2023/07/09 06:56:44;;;;;;;;;;;;;;;22.44;100.00;101946.16;5017063;28;20896;-76
2023/07/09 06:59:10;;;;;;;;;;;;;;;22.43;100.00;101949.91;5035375;28;20420;-76
2023/07/09 07:01:35;;;;;;;;;;;;;;;22.41;100.00;101951.97;5034780;28;20400;-76
2023/07/09 07:04:00;;;;;;;;;;;;;;;22.50;100.00;101950.00;5035209;28;20381;-76
2023/07/09 07:06:25;;;;;;;;;;;;;;;22.60;100.00;101957.81;5034826;28;19917;-76
2023/07/09 07:08:51;;;;;;;;;;;;;;;22.74;100.00;101959.63;5034567;28;20007;-76
2023/07/09 07:11:16;;;;;;;;;;;;;;;22.84;100.00;101962.88;5035007;28;19953;-76
2023/07/09 07:13:43;;;;;;;;;;;;;;;22.98;100.00;101968.44;5034412;28;20280;-76
2023/07/09 07:16:10;;;;;;;;;;;;;;;23.07;100.00;101964.53;5034982;28;19913;-75
2023/07/09 07:18:35;;;;;;;;;;;;;;;23.19;100.00;101951.31;5034512;28;19959;-76
2023/07/09 07:21:01;;;;;;;;;;;;;;;23.32;100.00;101942.41;5034730;28;19917;-75
2023/07/09 07:23:26;;;;;;;;;;;;;;;23.46;100.00;101936.06;5034744;28;20297;-75
2023/07/09 07:25:52;;;;;;;;;;;;;;;23.62;100.00;101932.19;5034019;28;19916;-76
2023/07/09 07:28:17;;;;;;;;;;;;;;;23.85;100.00;101936.50;5034368;28;20385;-75
2023/07/09 07:30:43;;;;;;;;;;;;;;;24.00;100.00;101931.78;5034218;28;19952;-76
2023/07/09 07:33:08;;;;;;;;;;;;;;;24.21;100.00;101930.00;5034520;28;19917;-75
2023/07/09 07:35:33;;;;;;;;;;;;;;;24.41;100.00;101925.47;5034076;28;20004;-76
2023/07/09 07:37:58;;;;;;;;;;;;;;;24.54;100.00;101926.53;5034338;28;19924;-76
2023/07/09 07:40:24;;;;;;;;;;;;;;;24.71;100.00;101927.03;5034320;28;19932;-75
2023/07/09 07:42:49;;;;;;;;;;;;;;;24.84;100.00;101932.47;5033957;28;19935;-76
2023/07/09 07:45:14;;;;;;;;;;;;;;;24.90;100.00;101928.06;5034302;28;20361;-75
2023/07/09 07:47:40;;;;;;;;;;;;;;;25.03;100.00;101927.25;5033843;28;19913;-76
2023/07/09 07:50:06;;;;;;;;;;;;;;;25.05;100.00;101925.16;5033854;28;20308;-74
2023/07/09 07:52:32;;;;;;;;;;;;;;;25.03;100.00;101919.91;5033733;28;19917;-77
2023/07/09 07:54:57;;;;;;;;;;;;;;;25.11;100.00;101919.72;5033640;28;19931;-79
2023/07/09 07:57:24;;;;;;;;;;;;;;;25.16;100.00;101919.91;5033569;28;19928;-79
2023/07/09 07:59:49;;;;;;;;;;;;;;;25.24;100.00;101926.19;5033842;28;19913;-80
2023/07/09 08:02:15;;;;;;;;;;;;;;;25.37;100.00;101928.09;5033666;28;20024;-81
2023/07/09 08:04:41;;;;;;;;;;;;;;;25.37;100.00;101926.22;5015810;28;19917;-81
2023/07/09 08:07:10;;;;;;;;;;;;;;;25.48;100.00;101922.84;5033891;28;19913;-83
2023/07/09 08:09:35;;;;;;;;;;;;;;;25.62;100.00;101911.94;5033465;28;19918;-80
2023/07/09 08:12:02;;;;;;;;;;;;;;;25.75;100.00;101914.63;5016085;28;19913;-79
2023/07/09 08:14:27;;;;;;;;;;;;;;;25.79;100.00;101910.38;5033756;28;20341;-81
2023/07/09 08:16:52;;;;;;;;;;;;;;;25.80;100.00;101913.97;5033432;28;19925;-79
2023/07/09 08:19:19;;;;;;;;;;;;;;;25.60;100.00;101916.72;5033964;28;19913;-81
2023/07/09 08:21:44;;;;;;;;;;;;;;;25.51;100.00;101908.81;5033352;28;19917;-80
2023/07/09 08:24:09;;;;;;;;;;;;;;;25.51;100.00;101913.41;5033714;28;20288;-79
2023/07/09 08:26:37;;;;;;;;;;;;;;;25.54;100.00;101904.78;5033707;28;20364;-80
2023/07/09 08:29:03;;;;;;;;;;;;;;;25.66;100.00;101911.28;5033193;28;20415;-79
2023/07/09 08:31:28;;;;;;;;;;;;;;;25.59;100.00;101907.72;5033715;28;20015;-80
2023/07/09 08:33:53;;;;;;;;;;;;;;;25.57;100.00;101909.81;5032939;28;20288;-79
2023/07/09 08:36:19;;;;;;;;;;;;;;;25.68;100.00;101916.53;5033479;28;19920;-80
2023/07/09 08:38:44;;;;;;;;;;;;;;;25.85;100.00;101927.78;5033013;28;19923;-81
2023/07/09 08:41:24;;;;;;;;;;;;;;;25.93;100.00;101938.47;5033413;28;20024;-78
2023/07/09 08:43:58;;;;;;;;;;;;;;;25.84;100.00;101934.25;5032991;28;19913;-79
2023/07/09 08:46:24;;;;;;;;;;;;;;;25.77;100.00;101941.66;5033491;28;19916;-79
2023/07/09 08:48:50;;;;;;;;;;;;;;;25.76;100.00;101934.53;5032820;28;20375;-78
2023/07/09 08:51:19;;;;;;;;;;;;;;;26.00;100.00;101943.91;5033113;28;19913;-80
2023/07/09 08:53:47;;;;;;;;;;;;;;;26.23;100.00;101935.22;5032671;28;20011;-80
2023/07/09 08:56:13;;;;;;;;;;;;;;;26.40;100.00;101939.09;5033268;28;19913;-79
2023/07/09 08:58:40;;;;;;;;;;;;;;;26.67;100.00;101949.06;5043239;28;20356;-81
2023/07/09 09:01:12;;;;;;;;;;;;;;;26.93;100.00;101953.47;5052228;28;20391;-80
2023/07/09 09:03:43;;;;;;;;;;;;;;;27.18;100.00;101961.66;5053050;28;19919;-79
2023/07/09 09:06:15;;;;;;;;;;;;;;;27.45;97.68;101958.72;5052980;28;19912;-82
2023/07/09 09:08:41;;;;;;;;;;;;;;;27.56;91.58;101960.72;5043243;28;19913;-79
2023/07/09 09:11:11;;;;;;;;;;;;;;;27.89;89.41;101943.13;5015502;28;19917;-82
2023/07/09 09:13:36;;;;;;;;;;;;;;;28.21;88.80;101936.66;5033970;28;19913;-80
2023/07/09 09:16:05;;;;;;;;;;;;;;;28.50;82.53;101933.09;5033530;28;19976;-75
2023/07/09 09:18:36;;;;;;;;;;;;;;;28.54;83.56;101938.09;5034070;28;19913;-75
2023/07/09 09:21:07;;;;;;;;;;;;;;;28.67;77.72;101930.53;5033705;28;20000;-76
2023/07/09 09:23:40;;;;;;;;;;;;;;;28.70;74.96;101928.41;5035686;28;19920;-74
2023/07/09 09:26:14;;;;;;;;;;;;;;;28.87;78.42;101914.88;5052028;28;20009;-76
2023/07/09 09:28:39;;;;;;;;;;;;;;;28.93;73.87;101908.44;5047623;28;19916;-76
2023/07/09 09:31:06;;;;;;;;;;;;;;;28.67;71.21;101896.88;5033917;28;19932;-77
2023/07/09 09:33:42;;;;;;;;;;;;;;;28.75;79.32;101907.44;5033432;28;19924;-77
2023/07/09 09:36:14;;;;;;;;;;;;;;;29.01;77.84;101910.84;5021660;28;19977;-76
2023/07/09 09:38:39;;;;;;;;;;;;;;;29.48;69.42;101923.72;5024963;28;19917;-77
2023/07/09 09:41:04;;;;;;;;;;;;;;;29.45;71.83;101926.94;5025827;28;19927;-77
2023/07/09 09:43:32;;;;;;;;;;;;;;;29.64;74.06;101931.22;5007063;28;19921;-77
2023/07/09 09:46:00;;;;;;;;;;;;;;;30.30;69.20;101932.84;5023899;28;19913;-76
2023/07/09 09:48:30;;;;;;;;;;;;;;;30.40;62.58;101947.63;5016516;28;19962;-75
2023/07/09 09:50:57;;;;;;;;;;;;;;;30.41;64.14;101956.66;5033945;28;19921;-75
2023/07/09 09:53:23;;;;;;;;;;;;;;;30.35;65.42;101958.47;5016248;28;20366;-75
2023/07/09 09:55:50;;;;;;;;;;;;;;;30.19;63.45;101956.50;5034036;28;20353;-76
2023/07/09 09:58:16;;;;;;;;;;;;;;;29.99;70.76;101934.97;5033078;28;19924;-76
2023/07/09 10:00:47;;;;;;;;;;;;;;;30.49;66.74;101936.25;4997750;28;19917;-72
2023/07/09 10:03:13;;;;;;;;;;;;;;;31.20;60.16;101930.28;5013925;28;20008;-70
2023/07/09 10:05:44;;;;;;;;;;;;;;;31.67;59.29;101929.06;5033850;28;19957;-71
2023/07/09 10:08:30;;;;;;;;;;;;;;;32.09;51.78;101926.53;5012820;28;19920;-71
2023/07/09 10:10:59;;;;;;;;;;;;;;;32.50;55.21;101928.91;5030148;28;19920;-71
2023/07/09 10:13:33;;;;;;;;;;;;;;;32.87;51.86;101914.38;5016388;28;19917;-70
2023/07/09 10:16:11;;;;;;;;;;;;;;;32.99;48.68;101919.69;5033659;28;19953;-71
2023/07/09 10:18:55;;;;;;;;;;;;;;;32.85;51.98;101914.63;5015711;28;19917;-71
2023/07/09 10:21:34;;;;;;;;;;;;;;;32.67;53.09;101913.13;5033545;28;19979;-71
2023/07/09 10:24:01;;;;;;;;;;;;;;;32.72;51.19;101917.00;5033467;28;19967;-71
2023/07/09 10:26:29;;;;;;;;;;;;;;;31.98;52.20;101927.53;5033622;28;19913;-70
2023/07/09 10:29:21;;;;;;;;;;;;;;;31.35;53.91;101927.78;5034422;28;19983;-72
2023/07/09 10:31:50;;;;;;;;;;;;;;;31.51;53.40;101941.75;5037023;28;19936;-72
2023/07/09 10:34:18;;;;;;;;;;;;;;;31.29;57.26;101951.59;5033384;28;19989;-72
2023/07/09 10:36:58;;;;;;;;;;;;;;;30.69;56.64;101965.97;5033693;28;20427;-72
2023/07/09 10:39:28;;;;;;;;;;;;;;;30.22;58.44;101964.25;5033463;28;19948;-72
2023/07/09 10:41:57;;;;;;;;;;;;;;;29.85;64.55;101957.19;5033246;28;19960;-72
2023/07/09 10:44:25;;;;;;;;;;;;;;;30.11;67.57;101952.22;5033151;28;20019;-74
2023/07/09 10:46:53;;;;;;;;;;;;;;;30.99;58.81;101967.59;5015037;28;19996;-73
2023/07/09 10:49:20;;;;;;;;;;;;;;;31.75;56.08;101975.38;5033518;28;19913;-72
2023/07/09 10:51:52;;;;;;;;;;;;;;;32.16;51.35;101971.25;5032825;28;20135;-73
2023/07/09 10:54:17;;;;;;;;;;;;;;;32.46;50.40;101967.16;5033191;28;19924;-74
2023/07/09 10:56:42;;;;;;;;;;;;;;;32.37;50.06;101967.88;5033370;28;20229;-73
2023/07/09 10:59:18;;;;;;;;;;;;;;;32.42;50.56;101970.69;5032167;28;20253;-72
2023/07/09 11:01:47;;;;;;;;;;;;;;;32.14;52.09;101969.81;5032607;28;19983;-74
2023/07/09 11:04:21;;;;;;;;;;;;;;;31.88;50.81;101971.41;5032872;28;19913;-73
2023/07/09 11:06:49;;;;;;;;;;;;;;;31.22;53.14;101967.44;5032357;28;19992;-73
2023/07/09 11:09:35;;;;;;;;;;;;;;;30.76;57.23;101975.72;5032367;28;19959;-73
2023/07/09 11:12:07;;;;;;;;;;;;;;;30.29;56.80;101966.84;5032411;28;19972;-73
2023/07/09 11:14:38;;;;;;;;;;;;;;;30.30;61.32;101963.03;5032845;28;19924;-72
2023/07/09 11:17:04;;;;;;;;;;;;;;;30.27;63.91;101966.25;5032505;28;20280;-72
2023/07/09 11:19:29;;;;;;;;;;;;;;;30.53;62.04;101962.09;5032068;28;20020;-70
2023/07/09 11:21:58;;;;;;;;;;;;;;;30.51;63.16;101958.78;5032361;28;20294;-71
2023/07/09 11:24:32;;;;;;;;;;;;;;;30.79;63.54;101977.13;5032387;28;20008;-71
2023/07/09 11:26:59;;;;;;;;;;;;;;;31.33;60.01;101981.34;5032397;28;19975;-71
2023/07/09 11:29:25;;;;;;;;;;;;;;;31.82;54.98;102000.78;5032214;28;19921;-71
2023/07/09 11:31:50;;;;;;;;;;;;;;;31.76;56.30;102010.06;5014082;28;19975;-72
2023/07/09 11:34:17;;;;;;;;;;;;;;;31.36;53.83;102022.91;5014671;28;19952;-72
2023/07/09 11:37:01;;;;;;;;;;;;;;;31.03;60.30;102021.81;5031665;28;19912;-72
2023/07/09 11:39:36;;;;;;;;;;;;;;;31.41;57.07;102035.88;5032151;28;19917;-72
2023/07/09 11:42:01;;;;;;;;;;;;;;;31.98;54.48;102029.34;5032251;28;20403;-74
2023/07/09 11:44:31;;;;;;;;;;;;;;;32.47;53.27;102036.81;5032123;28;19913;-76
2023/07/09 11:46:59;;;;;;;;;;;;;;;32.45;50.93;102050.84;5032362;28;19917;-76
2023/07/09 11:49:27;;;;;;;;;;;;;;;32.05;51.73;102056.66;5014250;28;20285;-74
2023/07/09 11:51:58;;;;;;;;;;;;;;;32.10;54.21;102057.56;5031701;28;19913;-75
2023/07/09 11:54:24;;;;;;;;;;;;;;;32.08;51.13;102053.41;5032243;28;20359;-72
2023/07/09 11:56:56;;;;;;;;;;;;;;;31.25;53.27;102051.31;5014608;28;19968;-74
2023/07/09 11:59:22;;;;;;;;;;;;;;;30.23;56.49;102051.84;5014492;28;20345;-73
2023/07/09 12:01:48;;;;;;;;;;;;;;;29.33;64.04;102056.59;5014392;28;19916;-74
2023/07/09 12:04:18;;;;;;;;;;;;;;;28.58;71.50;102052.38;5032944;28;19917;-74
2023/07/09 12:06:44;;;;;;;;;;;;;;;27.60;82.68;102067.69;5032382;28;19913;-74
2023/07/09 12:09:16;;;;;;;;;;;;;;;26.72;94.36;102080.22;5032017;28;20277;-74
2023/07/09 12:11:46;;;;;;;;;;;;;;;26.33;100.00;102091.03;5014354;28;19917;-73
2023/07/09 12:14:15;;;;;;;;;;;;;;;26.08;100.00;102077.28;5014129;28;19917;-74
2023/07/09 12:16:42;;;;;;;;;;;;;;;25.84;100.00;102079.59;5032835;28;20383;-74
2023/07/09 12:19:11;;;;;;;;;;;;;;;25.48;100.00;102089.03;5032499;28;19913;-74
2023/07/09 12:21:38;;;;;;;;;;;;;;;24.93;100.00;102091.84;5014254;28;20004;-74
2023/07/09 12:24:13;;;;;;;;;;;;;;;24.56;100.00;102084.97;5032376;28;19912;-73
2023/07/09 12:26:38;;;;;;;;;;;;;;;24.04;100.00;102084.47;5014684;28;19913;-74
2023/07/09 12:29:04;;;;;;;;;;;;;;;23.62;100.00;102089.75;5014560;28;19956;-73